Terminal Aerodrome Forecast
Issued by NWS

Home | Current Version | Previous Version | Text Only | Print | Product List | Glossary On
Versions: 1 2 3 4 5 6 7 8 9 10 11 12 13 14 15
000
FTUS43 KPAH 181727
TAFCGI
TAF
KCGI 181727Z 1818/1918 14008KT P6SM SCT030 BKN250
     FM190300 VRB04KT P6SM SCT020 OVC040
     FM190600 05007KT 4SM -SHRA BR OVC020
     FM190900 03006KT 2SM -SHRA BR OVC007
     FM191600 32007KT P6SM OVC015=

USA.gov is the U.S. government's official web portal to all federal, state and local government web resources and services.